Time;durP1;ratioP1;P1;durP2;ratioP2;P2;SDS_P1;SDS_P2;PMS_P1;PMS_P2;Temp;Humidity;BMP_temperature;BMP_pressure;BME280_temperature;BME280_humidity;BME280_pressure;Samples;Min_cycle;Max_cycle;Signal;HPM_P1;HPM_P2
2021/10/29 08:33:10;;;;;;;0.30;0.30;;;;;;;;;;7368576;19;132719;-15
2021/10/29 08:35:42;;;;;;;1.15;0.40;;;;;;;;;;7364646;19;153509;-14
2021/10/29 08:38:14;;;;;;;0.52;0.40;;;;;;;;;;7363124;19;162111;-12
2021/10/29 08:40:46;;;;;;;0.40;0.40;;;;;;;;;;7364037;19;162323;-14
2021/10/29 08:43:17;;;;;;;0.30;0.30;;;;;;;;;;7364910;19;153888;-15
2021/10/29 08:45:50;;;;;;;0.40;0.40;;;;;;;;;;7364822;19;153555;-16
2021/10/29 08:48:25;;;;;;;1.80;0.40;;;;;;;;;;7364383;19;161919;-14
2021/10/29 08:50:56;;;;;;;0.43;0.43;;;;;;;;;;7364314;19;162233;-15
2021/10/29 08:53:28;;;;;;;0.73;0.50;;;;;;;;;;7364603;19;154412;-15
2021/10/29 08:56:02;;;;;;;0.25;0.25;;;;;;;;;;7364426;19;153611;-13
2021/10/29 08:58:36;;;;;;;0.30;0.30;;;;;;;;;;7363949;19;161813;-13
2021/10/29 09:01:12;;;;;;;1.73;0.85;;;;;;;;;;7363158;19;162573;-13
2021/10/29 09:03:48;;;;;;;0.40;0.40;;;;;;;;;;7364087;19;154463;-15
2021/10/29 09:06:37;;;;;;;0.88;0.50;;;;;;;;;;7364010;19;153544;-14
2021/10/29 09:09:25;;;;;;;1.52;0.57;;;;;;;;;;7363620;19;161771;-16
2021/10/29 09:15:56;;;;;;;0.57;0.47;;;;;;;;;;7362259;19;162489;-14
2021/10/29 09:31:31;;;;;;;0.60;0.40;;;;;;;;;;7361736;19;161950;-16
2021/10/29 09:34:05;;;;;;;0.55;0.40;;;;;;;;;;7334774;19;162482;-13
2021/10/29 09:36:41;;;;;;;0.40;0.40;;;;;;;;;;7334249;19;153963;-16
2021/10/29 09:39:15;;;;;;;0.60;0.40;;;;;;;;;;7334309;19;153508;-15
2021/10/29 09:42:14;;;;;;;0.60;0.60;;;;;;;;;;7331693;19;162118;-15
2021/10/29 09:44:47;;;;;;;0.57;0.40;;;;;;;;;;7333583;19;162484;-13
2021/10/29 09:47:21;;;;;;;;;;;;;;;;;;7333370;19;154063;-14
2021/10/29 09:50:01;;;;;;;0.40;0.40;;;;;;;;;;7334081;19;153345;-16
2021/10/29 09:53:02;;;;;;;0.40;0.40;;;;;;;;;;7333431;19;161801;-15
2021/10/29 09:58:18;;;;;;;0.50;0.50;;;;;;;;;;7333532;19;154074;-15
2021/10/29 10:00:50;;;;;;;0.40;0.40;;;;;;;;;;7333479;19;153498;-15
2021/10/29 10:03:23;;;;;;;1.00;0.47;;;;;;;;;;7330593;19;161983;-16
2021/10/29 10:05:58;;;;;;;0.40;0.40;;;;;;;;;;7333101;19;162457;-15
2021/10/29 10:08:34;;;;;;;0.40;0.40;;;;;;;;;;7332206;19;153918;-16
2021/10/29 10:11:05;;;;;;;0.40;0.40;;;;;;;;;;7333175;19;153530;-14
2021/10/29 10:13:38;;;;;;;0.65;0.40;;;;;;;;;;7331846;19;161821;-15
2021/10/29 10:16:10;;;;;;;;;;;;;;;;;;7332956;19;162529;-12
2021/10/29 10:18:41;;;;;;;0.40;0.40;;;;;;;;;;7333009;19;154132;-14
2021/10/29 10:21:20;;;;;;;0.68;0.50;;;;;;;;;;7332916;19;153534;-13
2021/10/29 10:23:55;;;;;;;0.40;0.40;;;;;;;;;;7332380;19;161833;-12
2021/10/29 10:40:51;;;;;;;1.90;0.70;;;;;;;;;;7332112;19;153880;-13
2021/10/29 10:43:41;;;;;;;0.40;0.40;;;;;;;;;;7333831;19;153627;-16
2021/10/29 10:46:18;;;;;;;0.50;0.50;;;;;;;;;;7331184;19;161956;-16
2021/10/29 10:48:59;;;;;;;0.40;0.40;;;;;;;;;;7331543;19;162542;-16
2021/10/29 10:51:42;;;;;;;0.90;0.40;;;;;;;;;;7332362;19;154024;-16
2021/10/29 10:54:19;;;;;;;0.70;0.50;;;;;;;;;;7334636;19;153639;-17
2021/10/29 11:05:42;;;;;;;0.52;0.50;;;;;;;;;;7331211;19;153786;-13
2021/10/29 11:11:17;;;;;;;0.68;0.57;;;;;;;;;;7330772;19;162412;-15
2021/10/29 11:13:57;;;;;;;0.50;0.50;;;;;;;;;;7331456;19;154104;-14
2021/10/29 11:16:35;;;;;;;0.52;0.52;;;;;;;;;;7330914;19;153676;-14
2021/10/29 11:19:11;;;;;;;2.38;0.85;;;;;;;;;;7330705;19;161831;-12
2021/10/29 11:21:53;;;;;;;2.00;0.90;;;;;;;;;;7330382;19;162523;-14
2021/10/29 11:24:34;;;;;;;0.73;0.70;;;;;;;;;;7327828;19;154202;-14
2021/10/29 11:27:08;;;;;;;1.10;0.50;;;;;;;;;;7330287;19;153715;-14
2021/10/29 11:29:50;;;;;;;2.28;0.70;;;;;;;;;;7330172;19;161816;-13
2021/10/29 11:32:22;;;;;;;1.10;0.70;;;;;;;;;;7328674;19;162397;-15
2021/10/29 11:34:58;;;;;;;2.00;0.68;;;;;;;;;;7330104;19;153904;-14
2021/10/29 11:37:32;;;;;;;1.63;0.70;;;;;;;;;;7330132;19;153505;-14
2021/10/29 11:40:04;;;;;;;1.20;0.70;;;;;;;;;;7330204;19;161881;-14
2021/10/29 11:42:35;;;;;;;1.42;0.52;;;;;;;;;;7328476;19;162738;-16
2021/10/29 11:45:11;;;;;;;2.20;0.52;;;;;;;;;;7330242;19;154063;-16
2021/10/29 11:47:43;;;;;;;1.52;0.70;;;;;;;;;;7329891;19;153772;-13
2021/10/29 11:50:15;;;;;;;1.05;0.75;;;;;;;;;;7329132;19;162051;-16
2021/10/29 11:52:47;;;;;;;3.95;0.68;;;;;;;;;;7329285;19;162360;-13
2021/10/29 11:55:23;;;;;;;4.95;0.90;;;;;;;;;;7327865;19;153942;-13
2021/10/29 11:58:03;;;;;;;1.58;0.70;;;;;;;;;;7329652;19;153932;-15
2021/10/29 12:00:50;;;;;;;1.25;0.70;;;;;;;;;;7327910;19;161815;-14
2021/10/29 12:07:13;;;;;;;2.45;1.00;;;;;;;;;;7330547;19;153910;-16
2021/10/29 12:09:25;;;;;;;2.00;0.82;;;;;;;;;;7328737;19;153484;-14
2021/10/29 12:11:58;;;;;;;1.15;0.65;;;;;;;;;;7328828;19;161950;-13
2021/10/29 12:14:32;;;;;;;5.88;1.10;;;;;;;;;;7328743;19;162531;-16
2021/10/29 12:17:11;;;;;;;3.70;0.90;;;;;;;;;;7328881;19;154024;-14
2021/10/29 12:19:44;;;;;;;1.48;0.60;;;;;;;;;;7328636;19;153479;-16
2021/10/29 12:25:06;;;;;;;1.83;0.80;;;;;;;;;;7325693;19;162436;-14
2021/10/29 12:27:40;;;;;;;1.65;0.70;;;;;;;;;;7328654;19;153927;-17
2021/10/29 12:30:25;;;;;;;1.83;1.05;;;;;;;;;;7328424;19;153796;-16
2021/10/29 12:53:12;;;;;;;1.70;0.95;;;;;;;;;;7328600;19;153653;-13
2021/10/29 13:01:29;;;;;;;1.25;0.73;;;;;;;;;;7327676;19;154070;-13
2021/10/29 13:04:02;;;;;;;0.80;0.70;;;;;;;;;;7325309;19;153671;-14
2021/10/29 13:06:38;;;;;;;0.75;0.70;;;;;;;;;;7327068;19;162003;-14
2021/10/29 13:09:19;;;;;;;0.50;0.50;;;;;;;;;;7332571;19;162279;-14
2021/10/29 13:11:56;;;;;;;1.75;1.05;;;;;;;;;;7334769;19;154037;-16
2021/10/29 13:14:32;;;;;;;0.85;0.75;;;;;;;;;;7334834;19;154135;-15
2021/10/29 13:17:05;;;;;;;3.10;0.80;;;;;;;;;;7337297;19;161835;-16
2021/10/29 13:22:57;;;;;;;0.50;0.50;;;;;;;;;;7336810;19;153981;-17
2021/10/29 13:26:00;;;;;;;0.80;0.80;;;;;;;;;;7331857;19;153531;-16
2021/10/29 13:28:40;;;;;;;0.95;0.70;;;;;;;;;;7333368;19;162151;-14
2021/10/29 13:34:25;;;;;;;1.38;0.73;;;;;;;;;;7333800;19;154021;-14
2021/10/29 13:37:01;;;;;;;0.65;0.65;;;;;;;;;;7333485;19;153453;-16
2021/10/29 13:51:08;;;;;;;1.67;0.70;;;;;;;;;;7332900;19;162014;-15
2021/10/29 13:53:51;;;;;;;0.68;0.68;;;;;;;;;;7332697;19;162408;-14
2021/10/29 13:56:34;;;;;;;1.73;0.82;;;;;;;;;;7336663;19;154194;-14
2021/10/29 14:02:03;;;;;;;1.05;0.80;;;;;;;;;;7332835;19;162218;-15
2021/10/29 14:29:17;;;;;;;1.20;0.85;;;;;;;;;;7332397;19;153975;-14
2021/10/29 14:31:52;;;;;;;0.65;0.60;;;;;;;;;;7330348;19;153498;-16
2021/10/29 14:34:27;;;;;;;1.13;1.00;;;;;;;;;;7331437;19;161812;-16
2021/10/29 14:37:02;;;;;;;1.08;0.70;;;;;;;;;;7331468;19;162328;-15
2021/10/29 14:39:38;;;;;;;1.55;0.93;;;;;;;;;;7331870;19;154150;-14
2021/10/29 14:42:16;;;;;;;1.38;1.00;;;;;;;;;;7331519;19;153631;-13
2021/10/29 14:44:56;;;;;;;0.68;0.68;;;;;;;;;;7330363;19;161792;-16
2021/10/29 14:47:37;;;;;;;1.13;0.88;;;;;;;;;;7331377;19;162611;-17
2021/10/29 14:50:42;;;;;;;0.77;0.75;;;;;;;;;;7333092;19;153969;-15
2021/10/29 15:04:40;;;;;;;0.60;0.60;;;;;;;;;;7330258;19;153289;-16
2021/10/29 15:18:24;;;;;;;1.23;0.82;;;;;;;;;;7332615;19;161953;-11
2021/10/29 15:26:49;;;;;;;1.50;0.80;;;;;;;;;;7331819;19;155850;-15
2021/10/29 15:29:25;;;;;;;1.45;0.90;;;;;;;;;;7333221;19;162113;-15
2021/10/29 15:43:20;;;;;;;0.70;0.70;;;;;;;;;;7323838;19;162242;-12
2021/10/29 15:45:52;;;;;;;1.35;0.85;;;;;;;;;;7329862;19;153990;-13
2021/10/29 15:48:25;;;;;;;2.13;1.10;;;;;;;;;;7326884;19;153711;-13
2021/10/29 15:50:59;;;;;;;1.88;1.00;;;;;;;;;;7333174;19;161882;-15
2021/10/29 15:53:30;;;;;;;1.10;1.00;;;;;;;;;;7333566;19;162349;-16
2021/10/29 15:56:09;;;;;;;1.48;0.90;;;;;;;;;;7333064;19;153955;-13
2021/10/29 15:58:46;;;;;;;1.55;0.90;;;;;;;;;;7332839;19;153591;-12
2021/10/29 16:01:22;;;;;;;1.88;1.10;;;;;;;;;;7333115;19;161946;-16
2021/10/29 16:04:08;;;;;;;1.42;0.80;;;;;;;;;;7333185;19;162552;-15
2021/10/29 16:17:37;;;;;;;0.90;0.88;;;;;;;;;;7330090;19;154385;-15
2021/10/29 16:20:10;;;;;;;1.60;0.95;;;;;;;;;;7330902;19;153641;-17
2021/10/29 16:22:44;;;;;;;0.80;0.80;;;;;;;;;;7332527;19;162106;-16
2021/10/29 16:25:17;;;;;;;0.80;0.80;;;;;;;;;;7326786;19;162420;-14
2021/10/29 16:27:55;;;;;;;1.92;0.90;;;;;;;;;;7327704;19;154029;-13
2021/10/29 16:30:28;;;;;;;1.05;0.77;;;;;;;;;;7329245;19;153678;-14
2021/10/29 16:33:23;;;;;;;0.73;0.70;;;;;;;;;;7326215;19;162132;-14
2021/10/29 16:35:55;;;;;;;0.98;0.75;;;;;;;;;;7328925;19;162545;-16
2021/10/29 16:38:29;;;;;;;0.75;0.70;;;;;;;;;;7329263;19;154008;-15
2021/10/29 16:41:01;;;;;;;0.90;0.90;;;;;;;;;;7329118;19;153720;-15
2021/10/29 16:43:35;;;;;;;0.70;0.70;;;;;;;;;;7333835;19;162000;-15
2021/10/29 16:46:07;;;;;;;0.75;0.75;;;;;;;;;;7334543;19;163146;-14
2021/10/29 16:48:39;;;;;;;0.73;0.73;;;;;;;;;;7336053;19;154006;-15
2021/10/29 16:51:14;;;;;;;1.40;0.80;;;;;;;;;;7335981;19;153727;-13
2021/10/29 16:53:48;;;;;;;1.38;0.88;;;;;;;;;;7334898;19;162007;-15
2021/10/29 16:56:19;;;;;;;1.13;0.77;;;;;;;;;;7333432;19;162626;-16
2021/10/29 16:58:50;;;;;;;1.20;0.75;;;;;;;;;;7333661;19;154246;-13
2021/10/29 17:01:21;;;;;;;2.05;1.00;;;;;;;;;;7302701;19;153790;-12
2021/10/29 17:03:53;;;;;;;0.80;0.80;;;;;;;;;;7336820;19;161959;-12
2021/10/29 17:06:24;;;;;;;1.00;0.80;;;;;;;;;;7332176;19;162335;-13
2021/10/29 17:08:58;;;;;;;0.70;0.70;;;;;;;;;;7337990;19;153975;-13
2021/10/29 17:11:31;;;;;;;0.80;0.80;;;;;;;;;;7334074;19;153654;-13
2021/10/29 17:14:02;;;;;;;2.05;0.90;;;;;;;;;;7334168;19;162003;-13
2021/10/29 17:16:35;;;;;;;1.55;0.80;;;;;;;;;;7338298;19;163042;-13
2021/10/29 17:19:06;;;;;;;1.33;0.90;;;;;;;;;;7334155;19;154273;-13
2021/10/29 17:21:37;;;;;;;1.00;0.80;;;;;;;;;;7334564;19;153560;-13
2021/10/29 17:24:11;;;;;;;2.22;0.90;;;;;;;;;;7333867;19;161824;-13
2021/10/29 17:26:43;;;;;;;0.90;0.70;;;;;;;;;;7331192;19;162509;-13
2021/10/29 17:29:14;;;;;;;0.73;0.70;;;;;;;;;;7335275;19;154060;-13
2021/10/29 17:31:46;;;;;;;0.80;0.80;;;;;;;;;;7333795;19;153554;-13
2021/10/29 17:34:18;;;;;;;0.82;0.70;;;;;;;;;;7337791;19;161994;-14
2021/10/29 17:36:49;;;;;;;0.80;0.80;;;;;;;;;;7333746;19;162397;-13
2021/10/29 17:39:24;;;;;;;0.82;0.80;;;;;;;;;;7334020;19;153970;-13
2021/10/29 17:41:56;;;;;;;0.80;0.80;;;;;;;;;;7333590;19;153696;-13
2021/10/29 17:44:27;;;;;;;1.37;0.80;;;;;;;;;;7333488;19;161794;-13
2021/10/29 17:46:58;;;;;;;3.03;0.90;;;;;;;;;;7332349;19;162351;-13
2021/10/29 17:49:30;;;;;;;0.60;0.60;;;;;;;;;;7332723;19;154144;-13
2021/10/29 17:52:04;;;;;;;0.98;0.80;;;;;;;;;;7333776;19;153602;-13
2021/10/29 17:54:40;;;;;;;0.73;0.70;;;;;;;;;;7333224;19;161927;-12
2021/10/29 17:57:13;;;;;;;0.70;0.70;;;;;;;;;;7332151;19;162448;-13
2021/10/29 17:59:44;;;;;;;;;;;;;;;;;;7333972;19;153870;-12
2021/10/29 18:02:20;;;;;;;1.85;0.90;;;;;;;;;;7331582;19;153596;-13
2021/10/29 18:04:52;;;;;;;0.77;0.77;;;;;;;;;;7332532;19;162630;-12
2021/10/29 18:07:26;;;;;;;1.70;0.80;;;;;;;;;;7330998;19;162494;-12
2021/10/29 18:10:00;;;;;;;0.60;0.60;;;;;;;;;;7332974;19;154022;-12
2021/10/29 18:12:32;;;;;;;0.63;0.63;;;;;;;;;;7332671;19;153584;-12
2021/10/29 18:15:03;;;;;;;1.77;0.70;;;;;;;;;;7332649;19;161985;-13
2021/10/29 18:17:34;;;;;;;0.70;0.70;;;;;;;;;;7332510;19;162603;-13
2021/10/29 18:20:07;;;;;;;0.70;0.70;;;;;;;;;;7332738;19;153973;-12
2021/10/29 18:22:38;;;;;;;0.80;0.65;;;;;;;;;;7332609;19;153634;-14
2021/10/29 18:25:13;;;;;;;0.73;0.70;;;;;;;;;;7331330;19;161923;-13
2021/10/29 18:27:44;;;;;;;0.80;0.80;;;;;;;;;;7330288;19;162540;-13
2021/10/29 18:30:20;;;;;;;2.42;0.60;;;;;;;;;;7332319;19;154020;-12
2021/10/29 18:32:52;;;;;;;1.85;0.80;;;;;;;;;;7331077;19;153534;-12
2021/10/29 18:35:24;;;;;;;1.65;0.63;;;;;;;;;;7332040;19;161806;-12
2021/10/29 18:37:55;;;;;;;0.83;0.60;;;;;;;;;;7330417;19;162668;-13
2021/10/29 18:40:29;;;;;;;0.63;0.63;;;;;;;;;;7331744;19;154173;-13
2021/10/29 18:43:00;;;;;;;0.77;0.70;;;;;;;;;;7331990;19;153968;-13
2021/10/29 18:45:34;;;;;;;1.35;0.70;;;;;;;;;;7331488;19;161780;-13
2021/10/29 18:48:06;;;;;;;1.40;0.60;;;;;;;;;;7329580;19;162362;-13
2021/10/29 18:50:38;;;;;;;0.70;0.70;;;;;;;;;;7331938;19;154008;-13
2021/10/29 18:53:09;;;;;;;1.25;0.70;;;;;;;;;;7331659;19;154251;-13
2021/10/29 18:55:43;;;;;;;0.68;0.60;;;;;;;;;;7331298;19;162049;-13
2021/10/29 18:58:14;;;;;;;0.75;0.70;;;;;;;;;;7331376;19;162474;-13
2021/10/29 19:00:46;;;;;;;0.65;0.57;;;;;;;;;;7330995;19;154020;-13
2021/10/29 19:03:18;;;;;;;0.93;0.68;;;;;;;;;;7331052;19;153539;-13
2021/10/29 19:05:49;;;;;;;0.70;0.70;;;;;;;;;;7331849;19;161778;-13
2021/10/29 19:08:20;;;;;;;0.60;0.60;;;;;;;;;;7329677;19;162351;-12
2021/10/29 19:10:55;;;;;;;2.40;0.90;;;;;;;;;;7330507;19;154129;-12
2021/10/29 19:13:26;;;;;;;1.23;0.80;;;;;;;;;;7330124;19;153773;-26
2021/10/29 19:15:58;;;;;;;0.88;0.60;;;;;;;;;;7330315;19;161831;-16
2021/10/29 19:18:33;;;;;;;0.68;0.60;;;;;;;;;;7329464;19;162374;-33
2021/10/29 19:21:05;;;;;;;0.67;0.67;;;;;;;;;;7329187;19;153957;-28
2021/10/29 19:23:36;;;;;;;1.20;0.65;;;;;;;;;;7332300;19;153624;-20
2021/10/29 19:26:10;;;;;;;0.70;0.70;;;;;;;;;;7327060;19;161957;-14
2021/10/29 19:28:41;;;;;;;1.65;0.70;;;;;;;;;;7328054;19;162444;-14
2021/10/29 19:31:13;;;;;;;1.10;1.00;;;;;;;;;;7332497;19;154000;-16
2021/10/29 19:33:44;;;;;;;3.60;2.88;;;;;;;;;;7333477;19;153767;-13
2021/10/29 19:36:21;;;;;;;8.98;8.07;;;;;;;;;;7330179;19;162077;-15
2021/10/29 19:39:01;;;;;;;10.40;9.40;;;;;;;;;;7329626;19;162697;-14
2021/10/29 19:41:35;;;;;;;10.05;8.48;;;;;;;;;;7329695;19;154087;-15
2021/10/29 19:44:07;;;;;;;4.30;3.90;;;;;;;;;;7332693;19;153562;-13
2021/10/29 19:46:38;;;;;;;8.25;6.53;;;;;;;;;;7333160;19;161792;-14
2021/10/29 19:49:10;;;;;;;7.32;5.95;;;;;;;;;;7328530;19;162496;-15
2021/10/29 19:51:41;;;;;;;3.85;3.53;;;;;;;;;;7332218;19;154010;-13
2021/10/29 19:54:17;;;;;;;4.53;4.13;;;;;;;;;;7333072;19;153593;-13
2021/10/29 19:56:52;;;;;;;4.70;4.28;;;;;;;;;;7330969;19;162049;-14
2021/10/29 19:59:23;;;;;;;4.32;3.92;;;;;;;;;;7332027;19;162410;-14
2021/10/29 20:01:56;;;;;;;5.13;4.63;;;;;;;;;;7330253;19;154036;-16
2021/10/29 20:04:30;;;;;;;4.38;3.97;;;;;;;;;;7331261;19;153653;-14
2021/10/29 20:07:02;;;;;;;5.82;4.53;;;;;;;;;;7331876;19;161907;-21
2021/10/29 20:09:36;;;;;;;5.57;5.07;;;;;;;;;;7328670;19;162648;-14
2021/10/29 20:12:11;;;;;;;4.90;4.50;;;;;;;;;;7329415;19;154066;-13
2021/10/29 20:14:42;;;;;;;5.10;4.60;;;;;;;;;;7330670;19;153558;-15
2021/10/29 20:17:15;;;;;;;5.45;4.75;;;;;;;;;;7329795;19;161991;-16
2021/10/29 20:19:47;;;;;;;5.00;4.60;;;;;;;;;;7331512;19;163509;-12
2021/10/29 20:22:18;;;;;;;5.10;4.70;;;;;;;;;;7331190;19;154599;-13
2021/10/29 20:24:49;;;;;;;5.25;4.68;;;;;;;;;;7332611;19;153760;-13
2021/10/29 20:27:24;;;;;;;4.47;4.07;;;;;;;;;;7331086;19;162059;-15
2021/10/29 20:29:55;;;;;;;5.13;4.50;;;;;;;;;;7328751;19;162642;-14
2021/10/29 20:32:27;;;;;;;6.55;5.75;;;;;;;;;;7331512;19;153902;-12
2021/10/29 20:34:58;;;;;;;4.88;4.43;;;;;;;;;;7330905;19;153718;-14
2021/10/29 20:37:29;;;;;;;5.03;4.53;;;;;;;;;;7330486;19;161851;-12
2021/10/29 20:40:01;;;;;;;5.18;4.63;;;;;;;;;;7330019;19;162544;-14
2021/10/29 20:42:35;;;;;;;4.72;4.25;;;;;;;;;;7330992;19;154103;-15
2021/10/29 20:45:08;;;;;;;8.90;4.57;;;;;;;;;;7331749;19;153683;-15
2021/10/29 20:47:40;;;;;;;4.72;4.28;;;;;;;;;;7329968;19;162111;-13
2021/10/29 20:50:12;;;;;;;4.50;4.10;;;;;;;;;;7327574;19;162610;-15
2021/10/29 20:52:43;;;;;;;4.80;4.40;;;;;;;;;;7330719;19;154307;-15
2021/10/29 20:55:15;;;;;;;4.70;4.30;;;;;;;;;;7331039;19;153598;-17
2021/10/29 20:57:50;;;;;;;5.30;4.72;;;;;;;;;;7330887;19;162176;-17
2021/10/29 21:00:22;;;;;;;4.03;3.72;;;;;;;;;;7329469;19;162601;-15
2021/10/29 21:02:53;;;;;;;4.72;4.25;;;;;;;;;;7329856;19;154089;-15
2021/10/29 21:05:25;;;;;;;4.93;4.53;;;;;;;;;;7331191;19;153930;-15
2021/10/29 21:07:56;;;;;;;5.30;4.80;;;;;;;;;;7328847;19;161794;-15
2021/10/29 21:10:28;;;;;;;4.60;4.20;;;;;;;;;;7327556;19;162316;-15
2021/10/29 21:13:02;;;;;;;5.05;4.28;;;;;;;;;;7329975;19;154044;-15
2021/10/29 21:15:34;;;;;;;4.68;4.28;;;;;;;;;;7331025;19;153989;-14
2021/10/29 21:18:05;;;;;;;5.68;5.05;;;;;;;;;;7329830;19;162091;-13
2021/10/29 21:20:37;;;;;;;4.75;4.35;;;;;;;;;;7330285;19;162589;-14
2021/10/29 21:23:08;;;;;;;5.63;4.90;;;;;;;;;;7329537;19;154126;-14
2021/10/29 21:25:40;;;;;;;4.65;4.10;;;;;;;;;;7327134;19;153653;-14
2021/10/29 21:28:15;;;;;;;4.95;4.38;;;;;;;;;;7329559;19;161797;-15
2021/10/29 21:30:47;;;;;;;5.15;4.45;;;;;;;;;;7333726;19;162687;-12
2021/10/29 21:33:19;;;;;;;4.73;3.97;;;;;;;;;;7337448;19;155399;-12
2021/10/29 21:35:50;;;;;;;3.85;3.55;;;;;;;;;;7335074;19;153597;-16
2021/10/29 21:38:21;;;;;;;4.28;3.88;;;;;;;;;;7336688;19;161810;-12
2021/10/29 21:40:52;;;;;;;4.63;4.22;;;;;;;;;;7337005;19;162584;-15
2021/10/29 21:43:27;;;;;;;4.25;3.70;;;;;;;;;;7336961;19;154118;-15
2021/10/29 21:45:59;;;;;;;4.10;3.70;;;;;;;;;;7336183;19;153564;-15
2021/10/29 21:48:31;;;;;;;4.65;3.80;;;;;;;;;;7335206;19;162076;-13
2021/10/29 21:51:02;;;;;;;4.10;3.72;;;;;;;;;;7334108;19;162681;-16
2021/10/29 21:53:34;;;;;;;4.20;3.90;;;;;;;;;;7336443;19;154400;-14
2021/10/29 21:56:06;;;;;;;3.90;3.60;;;;;;;;;;7335727;19;153727;-13
2021/10/29 21:58:40;;;;;;;3.72;3.42;;;;;;;;;;7336253;19;161763;-14
2021/10/29 22:01:11;;;;;;;4.22;3.90;;;;;;;;;;7335077;19;162668;-12
2021/10/29 22:03:43;;;;;;;3.90;3.60;;;;;;;;;;7336493;19;154148;-13
2021/10/29 22:06:14;;;;;;;4.13;3.83;;;;;;;;;;7336171;19;153875;-14
2021/10/29 22:08:46;;;;;;;3.95;3.55;;;;;;;;;;7335131;19;161505;-17
2021/10/29 22:11:21;;;;;;;4.00;3.70;;;;;;;;;;7332652;19;162444;-16
2021/10/29 22:13:55;;;;;;;4.22;3.92;;;;;;;;;;7332907;19;153978;-14
2021/10/29 22:16:27;;;;;;;4.13;3.83;;;;;;;;;;7334850;19;153856;-14
2021/10/29 22:18:58;;;;;;;3.70;3.40;;;;;;;;;;7331341;19;162004;-13
2021/10/29 22:21:29;;;;;;;4.10;3.70;;;;;;;;;;7331267;19;162627;-20
2021/10/29 22:24:02;;;;;;;3.95;3.50;;;;;;;;;;7331524;19;153919;-17
2021/10/29 22:26:35;;;;;;;3.95;3.33;;;;;;;;;;7331547;19;153696;-20
2021/10/29 22:29:11;;;;;;;3.80;3.50;;;;;;;;;;7328191;19;161832;-15
2021/10/29 22:31:43;;;;;;;3.63;3.33;;;;;;;;;;7330705;19;162540;-16
2021/10/29 22:34:14;;;;;;;4.22;3.30;;;;;;;;;;7331675;19;154228;-15
2021/10/29 22:36:46;;;;;;;5.18;3.60;;;;;;;;;;7330882;19;153567;-14
2021/10/29 22:39:17;;;;;;;3.22;2.92;;;;;;;;;;7330954;19;161823;-14
2021/10/29 22:41:48;;;;;;;5.07;3.17;;;;;;;;;;7330283;19;162444;-15
2021/10/29 22:44:22;;;;;;;2.95;2.75;;;;;;;;;;7330917;19;154008;-14
2021/10/29 22:46:54;;;;;;;3.33;3.03;;;;;;;;;;7329516;19;153582;-15
2021/10/29 22:49:28;;;;;;;3.17;2.95;;;;;;;;;;7330078;19;161767;-15
2021/10/29 22:52:04;;;;;;;3.17;2.90;;;;;;;;;;7329154;19;162555;-14
2021/10/29 22:54:39;;;;;;;2.85;2.65;;;;;;;;;;7329317;19;154020;-20
2021/10/29 22:57:16;;;;;;;3.80;3.50;;;;;;;;;;7329841;19;153812;-16
2021/10/29 22:59:52;;;;;;;4.63;3.28;;;;;;;;;;7329229;19;161893;-13
2021/10/29 23:02:24;;;;;;;3.25;2.95;;;;;;;;;;7326023;19;162377;-15
2021/10/29 23:04:56;;;;;;;4.00;2.88;;;;;;;;;;7329853;19;154194;-15
2021/10/29 23:07:30;;;;;;;3.10;2.80;;;;;;;;;;7328787;19;153560;-13
2021/10/29 23:10:02;;;;;;;3.20;2.72;;;;;;;;;;7328310;19;161874;-16
2021/10/29 23:12:37;;;;;;;3.22;2.92;;;;;;;;;;7329976;19;162368;-13
2021/10/29 23:15:13;;;;;;;3.40;2.67;;;;;;;;;;7329374;19;154266;-15
2021/10/29 23:17:47;;;;;;;3.80;2.90;;;;;;;;;;7329118;19;153582;-15
2021/10/29 23:20:21;;;;;;;3.05;2.70;;;;;;;;;;7328359;19;161757;-15
2021/10/29 23:22:57;;;;;;;3.22;2.40;;;;;;;;;;7329565;19;162531;-17
2021/10/29 23:25:31;;;;;;;3.40;2.50;;;;;;;;;;7328549;19;154234;-14
2021/10/29 23:28:06;;;;;;;2.88;2.47;;;;;;;;;;7329393;19;153692;-15
2021/10/29 23:30:46;;;;;;;2.67;2.40;;;;;;;;;;7326944;19;161831;-17
2021/10/29 23:33:22;;;;;;;2.95;2.65;;;;;;;;;;7328321;19;162597;-15
2021/10/29 23:35:56;;;;;;;5.35;2.83;;;;;;;;;;7328231;19;154053;-16
2021/10/29 23:38:28;;;;;;;4.55;2.95;;;;;;;;;;7328358;19;153559;-16
2021/10/29 23:41:00;;;;;;;;;;;;;;;;;;7328396;19;161809;-14
2021/10/29 23:43:32;;;;;;;2.55;2.35;;;;;;;;;;7329076;19;162566;-16
2021/10/29 23:46:08;;;;;;;3.05;2.65;;;;;;;;;;7327671;19;154008;-15
2021/10/29 23:48:39;;;;;;;2.92;2.58;;;;;;;;;;7328985;19;153598;-13
2021/10/29 23:51:11;;;;;;;2.55;2.38;;;;;;;;;;7326901;19;161645;-12
2021/10/29 23:53:43;;;;;;;;;;;;;;;;;;7328063;19;162780;-15
2021/10/29 23:56:15;;;;;;;2.63;2.42;;;;;;;;;;7329350;19;154132;-15
2021/10/29 23:58:47;;;;;;;2.60;2.40;;;;;;;;;;7325951;19;153682;-14
